createdAt,value
2018-04-18T00:00:40.151Z,1018.50
2018-04-18T00:01:40.073Z,1018.54
2018-04-18T00:02:40.075Z,1018.47
2018-04-18T00:03:40.147Z,1018.51
2018-04-18T00:04:40.074Z,1018.50
2018-04-18T00:05:40.148Z,1018.54
2018-04-18T00:06:40.148Z,1018.47
2018-04-18T00:07:40.146Z,1018.50
2018-04-18T00:08:40.081Z,1018.50
2018-04-18T00:09:40.146Z,1018.52
2018-04-18T00:10:40.081Z,1018.52
2018-04-18T00:11:40.082Z,1018.52
2018-04-18T00:12:40.080Z,1018.52
2018-04-18T00:13:40.081Z,1018.52
2018-04-18T00:14:40.153Z,1018.50
2018-04-18T00:15:40.124Z,1018.52
2018-04-18T00:16:40.118Z,1018.57
2018-04-18T00:17:40.130Z,1018.51
2018-04-18T00:18:40.130Z,1018.53
2018-04-18T00:19:40.159Z,1018.53
2018-04-18T00:20:40.071Z,1018.54
2018-04-18T00:21:40.120Z,1018.54
2018-04-18T00:22:40.162Z,1018.54
2018-04-18T00:23:40.130Z,1018.53
2018-04-18T00:24:40.059Z,1018.53
2018-04-18T00:25:40.095Z,1018.52
2018-04-18T00:26:40.094Z,1018.52
2018-04-18T00:27:40.162Z,1018.56
2018-04-18T00:28:40.090Z,1018.59
2018-04-18T00:29:40.091Z,1018.56
2018-04-18T00:30:40.167Z,1018.57
2018-04-18T00:31:40.163Z,1018.59
2018-04-18T00:32:40.092Z,1018.62
2018-04-18T00:33:40.171Z,1018.60
2018-04-18T00:34:40.093Z,1018.62
2018-04-18T00:35:40.124Z,1018.59
2018-04-18T00:36:40.198Z,1018.58
2018-04-18T00:37:40.186Z,1018.61
2018-04-18T00:38:40.202Z,1018.64
2018-04-18T00:39:40.165Z,1018.66
2018-04-18T00:40:40.207Z,1018.69
2018-04-18T00:41:40.132Z,1018.65
2018-04-18T00:42:40.167Z,1018.67
2018-04-18T00:43:40.108Z,1018.65
2018-04-18T00:44:40.167Z,1018.70
2018-04-18T00:45:40.071Z,1018.72
2018-04-18T00:46:40.138Z,1018.70
2018-04-18T00:47:40.197Z,1018.69
2018-04-18T00:48:40.137Z,1018.69
2018-04-18T00:49:40.129Z,1018.74
2018-04-18T00:50:40.178Z,1018.72
2018-04-18T00:51:40.197Z,1018.73
2018-04-18T00:52:40.199Z,1018.72
2018-04-18T00:53:40.143Z,1018.75
2018-04-18T00:54:40.207Z,1018.75
2018-04-18T00:55:40.096Z,1018.78
2018-04-18T00:56:40.218Z,1018.76
2018-04-18T00:57:40.118Z,1018.75
2018-04-18T00:58:40.141Z,1018.75
2018-04-18T00:59:40.100Z,1018.79
2018-04-18T01:00:40.152Z,1018.80
2018-04-18T01:01:40.104Z,1018.77
2018-04-18T01:02:40.234Z,1018.78
2018-04-18T01:03:40.147Z,1018.76
2018-04-18T01:04:40.108Z,1018.75
2018-04-18T01:05:40.193Z,1018.74
2018-04-18T01:06:40.185Z,1018.76
2018-04-18T01:07:40.118Z,1018.75
2018-04-18T01:08:40.115Z,1018.73
2018-04-18T01:09:40.115Z,1018.73
2018-04-18T01:10:40.190Z,1018.75
2018-04-18T01:11:40.120Z,1018.76
2018-04-18T01:12:40.120Z,1018.72
2018-04-18T01:13:40.193Z,1018.77
2018-04-18T01:14:40.192Z,1018.76
2018-04-18T01:15:40.171Z,1018.76
2018-04-18T01:16:40.208Z,1018.75
2018-04-18T01:17:40.219Z,1018.76
2018-04-18T01:18:40.215Z,1018.69
2018-04-18T01:19:40.144Z,1018.72
2018-04-18T01:20:40.220Z,1018.75
2018-04-18T01:21:40.197Z,1018.71
2018-04-18T01:22:40.095Z,1018.73
2018-04-18T01:23:40.234Z,1018.72
2018-04-18T01:24:40.156Z,1018.75
2018-04-18T01:25:40.174Z,1018.73
2018-04-18T01:26:40.196Z,1018.70
2018-04-18T01:27:40.102Z,1018.69
2018-04-18T01:28:40.135Z,1018.71
2018-04-18T01:29:40.177Z,1018.69
2018-04-18T01:30:40.167Z,1018.70
2018-04-18T01:31:40.222Z,1018.70
2018-04-18T01:32:40.245Z,1018.67
2018-04-18T01:33:40.256Z,1018.68
2018-04-18T01:34:40.120Z,1018.72
2018-04-18T01:35:40.202Z,1018.68
2018-04-18T01:36:40.204Z,1018.70
2018-04-18T01:37:40.203Z,1018.69
2018-04-18T01:38:40.169Z,1018.67
2018-04-18T01:39:40.177Z,1018.71
2018-04-18T01:40:40.210Z,1018.71
2018-04-18T01:41:40.168Z,1018.69
2018-04-18T01:42:40.165Z,1018.72
2018-04-18T01:43:40.205Z,1018.70
2018-04-18T01:44:40.128Z,1018.72
2018-04-18T01:45:40.206Z,1018.72
2018-04-18T01:46:40.180Z,1018.72
2018-04-18T01:47:40.245Z,1018.72
2018-04-18T01:48:40.233Z,1018.68
2018-04-18T01:49:40.173Z,1018.72
2018-04-18T01:50:40.129Z,1018.71
2018-04-18T01:51:40.241Z,1018.73
2018-04-18T01:52:40.211Z,1018.66
2018-04-18T01:53:40.176Z,1018.68
2018-04-18T01:54:40.215Z,1018.73
2018-04-18T01:55:40.242Z,1018.75
2018-04-18T01:56:40.190Z,1018.73
2018-04-18T01:57:40.222Z,1018.72
2018-04-18T01:58:40.195Z,1018.76
2018-04-18T01:59:40.192Z,1018.77
2018-04-18T02:00:40.156Z,1018.79
2018-04-18T02:01:40.174Z,1018.78
2018-04-18T02:02:40.138Z,1018.80
2018-04-18T02:03:40.250Z,1018.81
2018-04-18T02:04:40.195Z,1018.85
2018-04-18T02:05:40.144Z,1018.86
2018-04-18T02:06:40.219Z,1018.85
2018-04-18T02:07:40.146Z,1018.86
2018-04-18T02:08:40.216Z,1018.87
2018-04-18T02:09:40.217Z,1018.87
2018-04-18T02:10:40.162Z,1018.92
2018-04-18T02:11:40.216Z,1018.92
2018-04-18T02:12:40.130Z,1018.95
2018-04-18T02:13:40.145Z,1018.91
2018-04-18T02:14:40.131Z,1018.93
2018-04-18T02:15:40.226Z,1018.93
2018-04-18T02:16:40.133Z,1018.95
2018-04-18T02:17:40.221Z,1018.95
2018-04-18T02:18:40.129Z,1018.97
2018-04-18T02:19:40.172Z,1019.02
2018-04-18T02:20:40.227Z,1019.01
2018-04-18T02:21:40.102Z,1019.03
2018-04-18T02:22:40.228Z,1019.05
2018-04-18T02:23:40.225Z,1019.00
2018-04-18T02:24:40.222Z,1019.02
2018-04-18T02:25:40.229Z,1019.03
2018-04-18T02:26:40.138Z,1019.06
2018-04-18T02:27:40.194Z,1019.07
2018-04-18T02:28:40.169Z,1019.08
2018-04-18T02:29:40.174Z,1019.11
2018-04-18T02:30:40.256Z,1019.14
2018-04-18T02:31:40.268Z,1019.15
2018-04-18T02:32:40.236Z,1019.12
2018-04-18T02:33:40.268Z,1019.13
2018-04-18T02:34:40.142Z,1019.13
2018-04-18T02:35:40.161Z,1019.16
2018-04-18T02:36:40.232Z,1019.16
2018-04-18T02:37:40.164Z,1019.13
2018-04-18T02:38:40.231Z,1019.17
2018-04-18T02:39:40.110Z,1019.16
2018-04-18T02:40:40.160Z,1019.16
2018-04-18T02:41:40.147Z,1019.21
2018-04-18T02:42:40.232Z,1019.18
2018-04-18T02:43:40.165Z,1019.17
2018-04-18T02:44:40.164Z,1019.18
2018-04-18T02:45:40.248Z,1019.20
2018-04-18T02:46:40.174Z,1019.23
2018-04-18T02:47:40.181Z,1019.23
2018-04-18T02:48:40.251Z,1019.27
2018-04-18T02:49:40.175Z,1019.29
2018-04-18T02:50:40.264Z,1019.32
2018-04-18T02:51:40.252Z,1019.30
2018-04-18T02:52:40.183Z,1019.30
2018-04-18T02:53:40.259Z,1019.30
2018-04-18T02:54:40.251Z,1019.35
2018-04-18T02:55:40.181Z,1019.32
2018-04-18T02:56:40.254Z,1019.34
2018-04-18T02:57:40.197Z,1019.32
2018-04-18T02:58:40.251Z,1019.35
2018-04-18T02:59:40.256Z,1019.33
2018-04-18T03:00:40.257Z,1019.37
2018-04-18T03:01:40.260Z,1019.37
2018-04-18T03:02:40.258Z,1019.37
2018-04-18T03:03:40.186Z,1019.39
2018-04-18T03:04:40.256Z,1019.36
2018-04-18T03:05:40.155Z,1019.40
2018-04-18T03:06:40.215Z,1019.41
2018-04-18T03:07:40.253Z,1019.41
2018-04-18T03:08:40.197Z,1019.39
2018-04-18T03:09:40.236Z,1019.37
2018-04-18T03:10:40.300Z,1019.41
2018-04-18T03:11:40.318Z,1019.45
2018-04-18T03:12:40.222Z,1019.42
2018-04-18T03:13:40.186Z,1019.50
2018-04-18T03:14:40.258Z,1019.48
2018-04-18T03:15:40.181Z,1019.50
2018-04-18T03:16:40.181Z,1019.50
2018-04-18T03:17:40.258Z,1019.44
2018-04-18T03:18:40.248Z,1019.48
2018-04-18T03:19:40.233Z,1019.51
2018-04-18T03:20:40.292Z,1019.45
2018-04-18T03:21:40.342Z,1019.48
2018-04-18T03:22:40.298Z,1019.48
2018-04-18T03:23:40.190Z,1019.50
2018-04-18T03:24:40.264Z,1019.50
2018-04-18T03:25:40.228Z,1019.50
2018-04-18T03:26:40.272Z,1019.51
2018-04-18T03:27:40.273Z,1019.48
2018-04-18T03:28:40.193Z,1019.54
2018-04-18T03:29:40.296Z,1019.53
2018-04-18T03:30:40.192Z,1019.49
2018-04-18T03:31:40.175Z,1019.51
2018-04-18T03:32:40.274Z,1019.49
2018-04-18T03:33:40.312Z,1019.48
2018-04-18T03:34:40.318Z,1019.52
2018-04-18T03:35:40.301Z,1019.51
2018-04-18T03:36:40.173Z,1019.51
2018-04-18T03:37:40.252Z,1019.52
2018-04-18T03:38:40.276Z,1019.52
2018-04-18T03:39:40.184Z,1019.54
2018-04-18T03:40:40.185Z,1019.55
2018-04-18T03:41:40.300Z,1019.57
2018-04-18T03:42:40.322Z,1019.59
2018-04-18T03:43:40.283Z,1019.59
2018-04-18T03:44:40.246Z,1019.61
2018-04-18T03:45:40.214Z,1019.63
2018-04-18T03:46:40.218Z,1019.62
2018-04-18T03:47:40.290Z,1019.58
2018-04-18T03:48:40.281Z,1019.61
2018-04-18T03:49:40.288Z,1019.57
2018-04-18T03:50:40.220Z,1019.61
2018-04-18T03:51:40.284Z,1019.57
2018-04-18T03:52:40.223Z,1019.61
2018-04-18T03:53:40.227Z,1019.60
2018-04-18T03:54:40.223Z,1019.59
2018-04-18T03:55:40.224Z,1019.60
2018-04-18T03:56:40.265Z,1019.63
2018-04-18T03:57:40.323Z,1019.63
2018-04-18T03:58:40.291Z,1019.62
2018-04-18T03:59:40.245Z,1019.65
2018-04-18T04:00:40.227Z,1019.63
2018-04-18T04:01:40.285Z,1019.66
2018-04-18T04:02:40.327Z,1019.66
2018-04-18T04:04:40.293Z,1019.69
2018-04-18T04:05:40.155Z,1019.65
2018-04-18T04:06:40.260Z,1019.68
2018-04-18T04:07:40.200Z,1019.72
2018-04-18T04:08:40.212Z,1019.73
2018-04-18T04:09:40.149Z,1019.73
2018-04-18T04:10:40.214Z,1019.72
2018-04-18T04:11:40.203Z,1019.76
2018-04-18T04:12:40.246Z,1019.74
2018-04-18T04:13:40.204Z,1019.76
2018-04-18T04:14:40.157Z,1019.78
2018-04-18T04:15:40.217Z,1019.77
2018-04-18T04:16:40.301Z,1019.76
2018-04-18T04:17:40.329Z,1019.76
2018-04-18T04:18:40.364Z,1019.78
2018-04-18T04:19:40.277Z,1019.81
2018-04-18T04:20:40.272Z,1019.84
2018-04-18T04:21:40.204Z,1019.85
2018-04-18T04:22:40.319Z,1019.88
2018-04-18T04:23:40.307Z,1019.85
2018-04-18T04:24:40.307Z,1019.87
2018-04-18T04:25:40.269Z,1019.90
2018-04-18T04:26:40.239Z,1019.86
2018-04-18T04:27:40.240Z,1019.87
2018-04-18T04:28:40.242Z,1019.88
2018-04-18T04:29:40.312Z,1019.88
2018-04-18T04:30:40.193Z,1019.88
2018-04-18T04:31:40.312Z,1019.91
2018-04-18T04:32:40.240Z,1019.92
2018-04-18T04:33:40.312Z,1019.93
2018-04-18T04:34:40.247Z,1019.96
2018-04-18T04:35:40.312Z,1019.98
2018-04-18T04:36:40.246Z,1019.99
2018-04-18T04:37:40.316Z,1019.98
2018-04-18T04:38:40.318Z,1020.01
2018-04-18T04:39:40.245Z,1020.02
2018-04-18T04:40:40.314Z,1020.05
2018-04-18T04:41:40.248Z,1020.00
2018-04-18T04:42:40.315Z,1020.04
2018-04-18T04:43:40.317Z,1020.04
2018-04-18T04:44:40.246Z,1020.06
2018-04-18T04:45:40.251Z,1020.09
2018-04-18T04:46:40.317Z,1020.08
2018-04-18T04:47:40.252Z,1020.07
2018-04-18T04:48:40.324Z,1020.04
2018-04-18T04:49:40.257Z,1020.13
2018-04-18T04:50:40.327Z,1020.11
2018-04-18T04:51:40.257Z,1020.10
2018-04-18T04:52:40.319Z,1020.10
2018-04-18T04:53:40.258Z,1020.14
2018-04-18T04:54:40.258Z,1020.18
2018-04-18T04:55:40.259Z,1020.18
2018-04-18T04:56:40.327Z,1020.18
2018-04-18T04:57:40.329Z,1020.18
2018-04-18T04:58:40.331Z,1020.25
2018-04-18T04:59:40.259Z,1020.20
2018-04-18T05:00:40.261Z,1020.17
2018-04-18T05:01:40.215Z,1020.19
2018-04-18T05:02:40.264Z,1020.24
2018-04-18T05:03:40.392Z,1020.27
2018-04-18T05:04:40.333Z,1020.29
2018-04-18T05:05:40.261Z,1020.29
2018-04-18T05:06:40.266Z,1020.31
2018-04-18T05:07:40.338Z,1020.28
2018-04-18T05:08:40.265Z,1020.34
2018-04-18T05:09:40.267Z,1020.33
2018-04-18T05:10:40.338Z,1020.35
2018-04-18T05:11:40.270Z,1020.36
2018-04-18T05:12:40.271Z,1020.37
2018-04-18T05:13:40.341Z,1020.36
2018-04-18T05:14:40.272Z,1020.38
2018-04-18T05:15:40.272Z,1020.36
2018-04-18T05:16:40.413Z,1020.38
2018-04-18T05:17:40.340Z,1020.38
2018-04-18T05:18:40.362Z,1020.43
2018-04-18T05:19:40.337Z,1020.41
2018-04-18T05:20:40.246Z,1020.43
2018-04-18T05:21:40.372Z,1020.49
2018-04-18T05:22:40.309Z,1020.51
2018-04-18T05:23:40.262Z,1020.50
2018-04-18T05:24:40.264Z,1020.55
2018-04-18T05:25:40.251Z,1020.55
2018-04-18T05:26:40.312Z,1020.58
2018-04-18T05:27:40.317Z,1020.59
2018-04-18T05:28:40.381Z,1020.62
2018-04-18T05:29:40.346Z,1020.62
2018-04-18T05:30:40.323Z,1020.64
2018-04-18T05:31:40.318Z,1020.64
2018-04-18T05:32:40.352Z,1020.69
2018-04-18T05:33:40.343Z,1020.68
2018-04-18T05:34:40.256Z,1020.72
2018-04-18T05:35:40.328Z,1020.73
2018-04-18T05:36:40.279Z,1020.74
2018-04-18T05:37:40.359Z,1020.77
2018-04-18T05:38:40.282Z,1020.76
2018-04-18T05:39:40.420Z,1020.82
2018-04-18T05:40:40.289Z,1020.83
2018-04-18T05:41:40.367Z,1020.84
2018-04-18T05:42:40.290Z,1020.88
2018-04-18T05:43:40.349Z,1020.87
2018-04-18T05:44:40.314Z,1020.91
2018-04-18T05:45:40.375Z,1020.89
2018-04-18T05:46:40.292Z,1020.90
2018-04-18T05:47:40.358Z,1020.91
2018-04-18T05:48:40.354Z,1020.93
2018-04-18T05:49:40.379Z,1020.94
2018-04-18T05:50:40.363Z,1020.91
2018-04-18T05:51:40.290Z,1020.96
2018-04-18T05:52:40.360Z,1020.95
2018-04-18T05:53:40.394Z,1020.99
2018-04-18T05:54:40.363Z,1020.94
2018-04-18T05:55:40.293Z,1020.93
2018-04-18T05:56:40.366Z,1020.94
2018-04-18T05:57:40.364Z,1020.91
2018-04-18T05:58:40.371Z,1020.91
2018-04-18T05:59:40.297Z,1020.99
2018-04-18T06:00:40.371Z,1020.96
2018-04-18T06:01:40.367Z,1020.99
2018-04-18T06:02:40.301Z,1021.01
2018-04-18T06:03:40.372Z,1020.97
2018-04-18T06:04:40.274Z,1021.04
2018-04-18T06:05:40.372Z,1021.00
2018-04-18T06:06:40.310Z,1021.04
2018-04-18T06:07:40.335Z,1021.04
2018-04-18T06:08:40.366Z,1021.10
2018-04-18T06:09:40.370Z,1021.08
2018-04-18T06:10:40.276Z,1021.06
2018-04-18T06:11:40.412Z,1021.12
2018-04-18T06:12:40.335Z,1021.11
2018-04-18T06:13:40.346Z,1021.11
2018-04-18T06:14:40.298Z,1021.12
2018-04-18T06:15:40.279Z,1021.12
2018-04-18T06:16:40.283Z,1021.11
2018-04-18T06:17:40.409Z,1021.07
2018-04-18T06:18:40.321Z,1021.09
2018-04-18T06:19:40.252Z,1021.08
2018-04-18T06:20:40.270Z,1021.10
2018-04-18T06:21:40.252Z,1021.09
2018-04-18T06:22:40.269Z,1021.10
2018-04-18T06:23:40.270Z,1021.11
2018-04-18T06:24:40.377Z,1021.13
2018-04-18T06:25:40.290Z,1021.17
2018-04-18T06:26:40.424Z,1021.16
2018-04-18T06:27:40.289Z,1021.15
2018-04-18T06:28:40.427Z,1021.17
2018-04-18T06:29:40.303Z,1021.15
2018-04-18T06:30:40.392Z,1021.16
2018-04-18T06:31:40.390Z,1021.19
2018-04-18T06:32:40.390Z,1021.18
2018-04-18T06:33:40.405Z,1021.19
2018-04-18T06:34:40.352Z,1021.21
2018-04-18T06:35:40.392Z,1021.18
2018-04-18T06:36:40.325Z,1021.17
2018-04-18T06:37:40.392Z,1021.20
2018-04-18T06:38:40.324Z,1021.23
2018-04-18T06:39:40.288Z,1021.17
2018-04-18T06:40:40.329Z,1021.19
2018-04-18T06:41:40.327Z,1021.18
2018-04-18T06:42:40.396Z,1021.20
2018-04-18T06:43:40.327Z,1021.21
2018-04-18T06:44:40.323Z,1021.25
2018-04-18T06:45:40.405Z,1021.22
2018-04-18T06:46:40.417Z,1021.25
2018-04-18T06:47:40.371Z,1021.24
2018-04-18T06:48:40.399Z,1021.28
2018-04-18T06:49:40.377Z,1021.30
2018-04-18T06:50:40.319Z,1021.25
2018-04-18T06:51:40.426Z,1021.23
2018-04-18T06:52:40.439Z,1021.25
2018-04-18T06:53:40.371Z,1021.27
2018-04-18T06:54:40.363Z,1021.29
2018-04-18T06:55:40.373Z,1021.24
2018-04-18T06:56:40.323Z,1021.23
2018-04-18T06:57:40.400Z,1021.28
2018-04-18T06:58:40.398Z,1021.27
2018-04-18T06:59:40.329Z,1021.26
2018-04-18T07:00:40.333Z,1021.32
2018-04-18T07:01:40.346Z,1021.29
2018-04-18T07:02:40.400Z,1021.33
2018-04-18T07:03:40.282Z,1021.34
2018-04-18T07:04:40.317Z,1021.32
2018-04-18T07:05:40.312Z,1021.30
2018-04-18T07:06:40.413Z,1021.34
2018-04-18T07:07:40.342Z,1021.39
2018-04-18T07:08:40.418Z,1021.40
2018-04-18T07:09:40.342Z,1021.39
2018-04-18T07:10:40.416Z,1021.42
2018-04-18T07:11:40.343Z,1021.39
2018-04-18T07:12:40.417Z,1021.40
2018-04-18T07:13:40.449Z,1021.38
2018-04-18T07:14:40.348Z,1021.34
2018-04-18T07:15:40.427Z,1021.35
2018-04-18T07:16:40.404Z,1021.37
2018-04-18T07:17:40.373Z,1021.37
2018-04-18T07:18:40.400Z,1021.37
2018-04-18T07:19:40.285Z,1021.40
2018-04-18T07:20:40.399Z,1021.37
2018-04-18T07:21:40.403Z,1021.36
2018-04-18T07:22:40.283Z,1021.41
2018-04-18T07:23:40.351Z,1021.39
2018-04-18T07:24:40.288Z,1021.43
2018-04-18T07:25:40.412Z,1021.42
2018-04-18T07:26:40.419Z,1021.43
2018-04-18T07:27:40.442Z,1021.48
2018-04-18T07:28:40.444Z,1021.45
2018-04-18T07:29:40.423Z,1021.48
2018-04-18T07:30:40.329Z,1021.46
2018-04-18T07:31:40.364Z,1021.47
2018-04-18T07:32:40.427Z,1021.47
2018-04-18T07:33:40.459Z,1021.46
2018-04-18T07:34:40.447Z,1021.47
2018-04-18T07:35:40.423Z,1021.48
2018-04-18T07:36:40.403Z,1021.50
2018-04-18T07:37:40.391Z,1021.51
2018-04-18T07:38:40.347Z,1021.50
2018-04-18T07:39:40.529Z,1021.48
2018-04-18T07:40:40.410Z,1021.43
2018-04-18T07:41:40.353Z,1021.47
2018-04-18T07:42:40.356Z,1021.45
2018-04-18T07:43:40.401Z,1021.49
2018-04-18T07:44:40.432Z,1021.49
2018-04-18T07:45:40.437Z,1021.49
2018-04-18T07:46:40.480Z,1021.48
2018-04-18T07:47:40.352Z,1021.50
2018-04-18T07:48:40.363Z,1021.51
2018-04-18T07:49:40.473Z,1021.49
2018-04-18T07:50:40.401Z,1021.48
2018-04-18T07:51:40.405Z,1021.52
2018-04-18T07:52:40.412Z,1021.48
2018-04-18T07:53:40.463Z,1021.52
2018-04-18T07:54:40.441Z,1021.51
2018-04-18T07:55:40.364Z,1021.53
2018-04-18T07:56:40.449Z,1021.51
2018-04-18T07:57:40.468Z,1021.53
2018-04-18T07:58:40.378Z,1021.56
2018-04-18T07:59:40.447Z,1021.53
2018-04-18T08:00:40.378Z,1021.55
2018-04-18T08:01:40.377Z,1021.56
2018-04-18T08:02:40.445Z,1021.59
2018-04-18T08:03:40.448Z,1021.56
2018-04-18T08:04:40.427Z,1021.59
2018-04-18T08:05:40.377Z,1021.64
2018-04-18T08:06:40.446Z,1021.62
2018-04-18T08:07:40.475Z,1021.64
2018-04-18T08:08:40.359Z,1021.60
2018-04-18T08:09:40.371Z,1021.66
2018-04-18T08:10:40.490Z,1021.62
2018-04-18T08:11:40.423Z,1021.64
2018-04-18T08:12:40.487Z,1021.67
2018-04-18T08:13:40.470Z,1021.65
2018-04-18T08:14:40.491Z,1021.67
2018-04-18T08:15:40.474Z,1021.65
2018-04-18T08:16:40.438Z,1021.64
2018-04-18T08:18:40.485Z,1021.68
2018-04-18T08:19:40.437Z,1021.65
2018-04-18T08:20:40.478Z,1021.68
2018-04-18T08:21:40.426Z,1021.69
2018-04-18T08:22:40.377Z,1021.70
2018-04-18T08:23:40.427Z,1021.69
2018-04-18T08:24:40.426Z,1021.72
2018-04-18T08:25:40.360Z,1021.72
2018-04-18T08:26:40.421Z,1021.75
2018-04-18T08:27:40.425Z,1021.70
2018-04-18T08:28:40.462Z,1021.67
2018-04-18T08:29:40.431Z,1021.70
2018-04-18T08:30:40.504Z,1021.69
2018-04-18T08:31:40.434Z,1021.64
2018-04-18T08:32:40.440Z,1021.62
2018-04-18T08:33:40.495Z,1021.62
2018-04-18T08:34:40.443Z,1021.61
2018-04-18T08:35:40.506Z,1021.67
2018-04-18T08:36:40.457Z,1021.65
2018-04-18T08:37:40.539Z,1021.68
2018-04-18T08:38:40.373Z,1021.70
2018-04-18T08:39:40.460Z,1021.68
2018-04-18T08:40:40.465Z,1021.71
2018-04-18T08:41:40.388Z,1021.70
2018-04-18T08:42:40.375Z,1021.68
2018-04-18T08:43:40.433Z,1021.66
2018-04-18T08:44:40.462Z,1021.64
2018-04-18T08:45:40.463Z,1021.64
2018-04-18T08:46:40.467Z,1021.65
2018-04-18T08:47:40.378Z,1021.64
2018-04-18T08:48:40.470Z,1021.62
2018-04-18T08:49:40.344Z,1021.62
2018-04-18T08:50:40.468Z,1021.62
2018-04-18T08:51:40.380Z,1021.62
2018-04-18T08:52:40.441Z,1021.63
2018-04-18T08:53:40.433Z,1021.62
2018-04-18T08:54:40.346Z,1021.63
2018-04-18T08:55:40.471Z,1021.60
2018-04-18T08:56:40.479Z,1021.61
2018-04-18T08:57:40.395Z,1021.59
2018-04-18T08:58:40.456Z,1021.62
2018-04-18T08:59:40.477Z,1021.61
2018-04-18T09:00:40.478Z,1021.61
2018-04-18T09:01:40.482Z,1021.56
2018-04-18T09:02:40.451Z,1021.60
2018-04-18T09:03:40.544Z,1021.55
2018-04-18T09:04:40.402Z,1021.53
2018-04-18T09:05:40.481Z,1021.55
2018-04-18T09:06:40.482Z,1021.54
2018-04-18T09:07:40.511Z,1021.56
2018-04-18T09:08:40.389Z,1021.58
2018-04-18T09:09:40.526Z,1021.59
2018-04-18T09:10:40.485Z,1021.58
2018-04-18T09:11:40.461Z,1021.57
2018-04-18T09:12:40.528Z,1021.55
2018-04-18T09:13:40.530Z,1021.54
2018-04-18T09:14:40.465Z,1021.54
2018-04-18T09:15:40.558Z,1021.52
2018-04-18T09:16:40.423Z,1021.51
2018-04-18T09:17:40.513Z,1021.51
2018-04-18T09:18:40.422Z,1021.48
2018-04-18T09:19:40.428Z,1021.45
2018-04-18T09:20:40.454Z,1021.47
2018-04-18T09:21:40.426Z,1021.46
2018-04-18T09:22:40.423Z,1021.47
2018-04-18T09:23:40.497Z,1021.43
2018-04-18T09:24:40.498Z,1021.44
2018-04-18T09:25:40.499Z,1021.44
2018-04-18T09:26:40.427Z,1021.43
2018-04-18T09:27:40.429Z,1021.41
2018-04-18T09:28:40.499Z,1021.42
2018-04-18T09:29:40.501Z,1021.44
2018-04-18T09:30:40.501Z,1021.40
2018-04-18T09:31:40.431Z,1021.42
2018-04-18T09:32:40.430Z,1021.38
2018-04-18T09:33:40.501Z,1021.39
2018-04-18T09:34:40.507Z,1021.43
2018-04-18T09:35:40.500Z,1021.39
2018-04-18T09:36:40.543Z,1021.37
2018-04-18T09:37:40.525Z,1021.35
2018-04-18T09:38:40.540Z,1021.39
2018-04-18T09:39:40.517Z,1021.33
2018-04-18T09:40:40.486Z,1021.38
2018-04-18T09:41:40.461Z,1021.33
2018-04-18T09:42:40.509Z,1021.33
2018-04-18T09:43:40.403Z,1021.32
2018-04-18T09:44:40.436Z,1021.31
2018-04-18T09:45:40.503Z,1021.31
2018-04-18T09:46:40.508Z,1021.28
2018-04-18T09:47:40.537Z,1021.32
2018-04-18T09:48:40.421Z,1021.30
2018-04-18T09:49:40.475Z,1021.31
2018-04-18T09:50:40.471Z,1021.33
2018-04-18T09:51:40.446Z,1021.35
2018-04-18T09:52:40.480Z,1021.31
2018-04-18T09:53:40.537Z,1021.28
2018-04-18T09:54:40.490Z,1021.30
2018-04-18T09:55:40.481Z,1021.23
2018-04-18T09:56:40.450Z,1021.25
2018-04-18T09:57:40.449Z,1021.25
2018-04-18T09:58:40.447Z,1021.22
2018-04-18T09:59:40.506Z,1021.20
2018-04-18T10:00:40.448Z,1021.20
2018-04-18T10:01:40.522Z,1021.19
2018-04-18T10:02:40.449Z,1021.18
2018-04-18T10:03:40.523Z,1021.19
2018-04-18T10:04:40.455Z,1021.21
2018-04-18T10:05:40.523Z,1021.18
2018-04-18T10:06:40.528Z,1021.20
2018-04-18T10:07:40.443Z,1021.21
2018-04-18T10:08:40.512Z,1021.17
2018-04-18T10:09:40.427Z,1021.16
2018-04-18T10:10:40.477Z,1021.17
2018-04-18T10:11:40.426Z,1021.19
2018-04-18T10:12:40.462Z,1021.16
2018-04-18T10:13:40.445Z,1021.15
2018-04-18T10:14:40.529Z,1021.15
2018-04-18T10:15:40.461Z,1021.16
2018-04-18T10:16:40.459Z,1021.16
2018-04-18T10:17:40.528Z,1021.15
2018-04-18T10:18:40.457Z,1021.12
2018-04-18T10:19:40.532Z,1021.14
2018-04-18T10:20:40.465Z,1021.11
2018-04-18T10:21:40.472Z,1021.11
2018-04-18T10:22:40.466Z,1021.12
2018-04-18T10:23:40.535Z,1021.14
2018-04-18T10:24:40.559Z,1021.15
2018-04-18T10:25:40.466Z,1021.16
2018-04-18T10:26:40.549Z,1021.13
2018-04-18T10:27:40.557Z,1021.11
2018-04-18T10:28:40.502Z,1021.12
2018-04-18T10:29:40.435Z,1021.09
2018-04-18T10:30:40.505Z,1021.12
2018-04-18T10:31:40.585Z,1021.08
2018-04-18T10:32:40.442Z,1021.12
2018-04-18T10:33:40.456Z,1021.14
2018-04-18T10:34:40.555Z,1021.15
2018-04-18T10:35:40.499Z,1021.15
2018-04-18T10:36:40.456Z,1021.13
2018-04-18T10:37:40.577Z,1021.14
2018-04-18T10:38:40.512Z,1021.10
2018-04-18T10:39:40.546Z,1021.12
2018-04-18T10:40:40.575Z,1021.07
2018-04-18T10:41:40.502Z,1021.08
2018-04-18T10:42:40.506Z,1021.10
2018-04-18T10:43:40.545Z,1021.03
2018-04-18T10:44:40.587Z,1021.07
2018-04-18T10:45:40.527Z,1021.02
2018-04-18T10:46:40.522Z,1021.05
2018-04-18T10:47:40.570Z,1021.03
2018-04-18T10:48:40.444Z,1021.01
2018-04-18T10:49:40.511Z,1021.01
2018-04-18T10:50:40.481Z,1021.00
2018-04-18T10:51:40.568Z,1020.97
2018-04-18T10:52:40.544Z,1020.98
2018-04-18T10:53:40.567Z,1021.00
2018-04-18T10:54:40.452Z,1021.04
2018-04-18T10:55:40.582Z,1021.08
2018-04-18T10:56:40.568Z,1021.08
2018-04-18T10:57:40.525Z,1021.06
2018-04-18T10:58:40.580Z,1021.06
2018-04-18T10:59:40.555Z,1021.07
2018-04-18T11:00:40.578Z,1021.05
2018-04-18T11:01:40.587Z,1021.05
2018-04-18T11:02:40.452Z,1021.05
2018-04-18T11:03:40.521Z,1021.04
2018-04-18T11:04:40.475Z,1021.06
2018-04-18T11:05:40.593Z,1020.99
2018-04-18T11:06:40.521Z,1021.01
2018-04-18T11:07:40.563Z,1021.01
2018-04-18T11:08:40.496Z,1020.99
2018-04-18T11:09:40.564Z,1020.99
2018-04-18T11:10:40.560Z,1020.98
2018-04-18T11:11:40.469Z,1020.97
2018-04-18T11:12:40.559Z,1020.99
2018-04-18T11:13:40.596Z,1020.96
2018-04-18T11:14:40.603Z,1020.96
2018-04-18T11:15:40.589Z,1020.95
2018-04-18T11:16:40.540Z,1020.97
2018-04-18T11:17:40.450Z,1020.92
2018-04-18T11:18:40.468Z,1020.94
2018-04-18T11:19:40.563Z,1020.90
2018-04-18T11:20:40.509Z,1020.92
2018-04-18T11:21:40.552Z,1020.91
2018-04-18T11:22:40.516Z,1020.88
2018-04-18T11:23:40.505Z,1020.90
2018-04-18T11:24:40.518Z,1020.84
2018-04-18T11:25:40.522Z,1020.85
2018-04-18T11:26:40.476Z,1020.82
2018-04-18T11:27:40.538Z,1020.84
2018-04-18T11:28:40.510Z,1020.82
2018-04-18T11:29:40.469Z,1020.84
2018-04-18T11:30:40.550Z,1020.82
2018-04-18T11:31:40.538Z,1020.79
2018-04-18T11:32:40.602Z,1020.82
2018-04-18T11:33:40.479Z,1020.86
2018-04-18T11:34:40.478Z,1020.82
2018-04-18T11:35:40.539Z,1020.81
2018-04-18T11:36:40.553Z,1020.78
2018-04-18T11:37:40.583Z,1020.83
2018-04-18T11:38:40.513Z,1020.80
2018-04-18T11:39:40.611Z,1020.83
2018-04-18T11:40:40.519Z,1020.81
2018-04-18T11:41:40.516Z,1020.80
2018-04-18T11:42:40.582Z,1020.79
2018-04-18T11:43:40.517Z,1020.77
2018-04-18T11:44:40.587Z,1020.81
2018-04-18T11:45:40.514Z,1020.79
2018-04-18T11:46:40.520Z,1020.82
2018-04-18T11:47:40.564Z,1020.80
2018-04-18T11:48:40.451Z,1020.82
2018-04-18T11:49:40.492Z,1020.75
2018-04-18T11:50:40.576Z,1020.77
2018-04-18T11:51:40.516Z,1020.73
2018-04-18T11:52:40.582Z,1020.71
2018-04-18T11:53:40.476Z,1020.70
2018-04-18T11:54:40.490Z,1020.68
2018-04-18T11:55:40.587Z,1020.66
2018-04-18T11:56:40.473Z,1020.68
2018-04-18T11:57:40.563Z,1020.67
2018-04-18T11:58:40.568Z,1020.66
2018-04-18T11:59:40.627Z,1020.70
2018-04-18T12:00:40.617Z,1020.67
2018-04-18T12:01:40.613Z,1020.68
2018-04-18T12:02:40.617Z,1020.70
2018-04-18T12:03:40.550Z,1020.67
2018-04-18T12:04:40.634Z,1020.64
2018-04-18T12:05:40.570Z,1020.66
2018-04-18T12:06:40.628Z,1020.66
2018-04-18T12:07:40.583Z,1020.67